sensor_id;sensor_type;location;lat;lon;timestamp;pressure;altitude;pressure_sealevel;temperature;humidity
56402;BME280;42299;35.160;26.100;2022-08-03T00:01:07;100370.38;;;26.29;50.83
56402;BME280;42299;35.160;26.100;2022-08-03T00:02:28;100373.94;;;26.29;50.55
56402;BME280;42299;35.160;26.100;2022-08-03T00:03:50;100382.00;;;26.31;50.59
56402;BME280;42299;35.160;26.100;2022-08-03T00:05:12;100376.66;;;26.29;50.87
56402;BME280;42299;35.160;26.100;2022-08-03T00:06:34;100376.66;;;26.29;50.72
56402;BME280;42299;35.160;26.100;2022-08-03T00:07:57;100378.41;;;26.30;51.05
56402;BME280;42299;35.160;26.100;2022-08-03T00:09:19;100379.28;;;26.31;50.85
56402;BME280;42299;35.160;26.100;2022-08-03T00:10:41;100365.75;;;26.31;50.84
56402;BME280;42299;35.160;26.100;2022-08-03T00:12:03;100377.44;;;26.31;50.99
56402;BME280;42299;35.160;26.100;2022-08-03T00:13:26;100374.75;;;26.31;51.04
56402;BME280;42299;35.160;26.100;2022-08-03T00:14:49;100367.56;;;26.30;50.79
56402;BME280;42299;35.160;26.100;2022-08-03T00:16:12;100375.78;;;26.29;51.04
56402;BME280;42299;35.160;26.100;2022-08-03T00:17:34;100376.72;;;26.28;51.12
56402;BME280;42299;35.160;26.100;2022-08-03T00:18:55;100370.44;;;26.27;50.97
56402;BME280;42299;35.160;26.100;2022-08-03T00:20:18;100369.56;;;26.27;51.07
56402;BME280;42299;35.160;26.100;2022-08-03T00:21:39;100374.03;;;26.28;51.25
56402;BME280;42299;35.160;26.100;2022-08-03T00:23:03;100373.94;;;26.29;51.25
56402;BME280;42299;35.160;26.100;2022-08-03T00:24:25;100372.19;;;26.28;51.26
56402;BME280;42299;35.160;26.100;2022-08-03T00:25:47;100373.94;;;26.29;51.07
56402;BME280;42299;35.160;26.100;2022-08-03T00:27:09;100377.53;;;26.30;50.97
56402;BME280;42299;35.160;26.100;2022-08-03T00:28:31;100378.41;;;26.30;51.05
56402;BME280;42299;35.160;26.100;2022-08-03T00:29:53;100369.34;;;26.31;51.07
56402;BME280;42299;35.160;26.100;2022-08-03T00:31:16;100376.47;;;26.32;51.22
56402;BME280;42299;35.160;26.100;2022-08-03T00:32:39;100371.16;;;26.31;51.31
56402;BME280;42299;35.160;26.100;2022-08-03T00:34:00;100375.69;;;26.30;51.06
56402;BME280;42299;35.160;26.100;2022-08-03T00:35:23;100373.00;;;26.30;51.06
56402;BME280;42299;35.160;26.100;2022-08-03T00:36:44;100372.13;;;26.30;51.27
56402;BME280;42299;35.160;26.100;2022-08-03T00:38:07;100365.75;;;26.31;51.05
56402;BME280;42299;35.160;26.100;2022-08-03T00:39:30;100368.47;;;26.31;51.28
56402;BME280;42299;35.160;26.100;2022-08-03T00:40:51;100378.47;;;26.29;51.42
56402;BME280;42299;35.160;26.100;2022-08-03T00:42:14;100367.81;;;26.26;51.48
56402;BME280;42299;35.160;26.100;2022-08-03T00:43:35;100375.84;;;26.27;51.60
56402;BME280;42299;35.160;26.100;2022-08-03T00:44:57;100370.44;;;26.27;51.69
56402;BME280;42299;35.160;26.100;2022-08-03T00:46:20;100372.28;;;26.27;51.40
56402;BME280;42299;35.160;26.100;2022-08-03T00:47:43;100370.44;;;26.27;51.73
56402;BME280;42299;35.160;26.100;2022-08-03T00:49:04;100367.72;;;26.27;51.54
56402;BME280;42299;35.160;26.100;2022-08-03T00:50:29;100362.25;;;26.29;51.71
56402;BME280;42299;35.160;26.100;2022-08-03T00:51:51;100374.03;;;26.28;51.51
56402;BME280;42299;35.160;26.100;2022-08-03T00:53:13;100373.06;;;26.29;51.76
56402;BME280;42299;35.160;26.100;2022-08-03T00:54:35;100374.97;;;26.27;51.76
56402;BME280;42299;35.160;26.100;2022-08-03T00:55:58;100368.59;;;26.28;51.82
56402;BME280;42299;35.160;26.100;2022-08-03T00:57:21;100362.25;;;26.29;51.65
56402;BME280;42299;35.160;26.100;2022-08-03T00:58:43;100364.00;;;26.30;51.75
56402;BME280;42299;35.160;26.100;2022-08-03T01:00:08;100366.63;;;26.31;51.83
56402;BME280;42299;35.160;26.100;2022-08-03T01:01:32;100365.75;;;26.31;51.57
56402;BME280;42299;35.160;26.100;2022-08-03T01:02:54;100367.66;;;26.29;51.92
56402;BME280;42299;35.160;26.100;2022-08-03T01:04:17;100371.31;;;26.28;52.05
56402;BME280;42299;35.160;26.100;2022-08-03T01:05:43;100359.53;;;26.29;51.94
56402;BME280;42299;35.160;26.100;2022-08-03T01:07:14;100366.97;;;26.25;52.00
56402;BME280;42299;35.160;26.100;2022-08-03T01:08:44;100367.81;;;26.26;52.12
56402;BME280;42299;35.160;26.100;2022-08-03T01:10:14;100363.38;;;26.25;52.15
56402;BME280;42299;35.160;26.100;2022-08-03T01:11:45;100360.69;;;26.25;52.20
56402;BME280;42299;35.160;26.100;2022-08-03T01:13:19;100363.44;;;26.23;52.46
56402;BME280;42299;35.160;26.100;2022-08-03T01:14:45;100367.97;;;26.23;52.38
56402;BME280;42299;35.160;26.100;2022-08-03T01:16:16;100364.31;;;26.24;52.56
56402;BME280;42299;35.160;26.100;2022-08-03T01:17:48;100361.69;;;26.22;52.73
56402;BME280;42299;35.160;26.100;2022-08-03T01:19:23;100358.16;;;26.20;52.88
56402;BME280;42299;35.160;26.100;2022-08-03T01:20:55;100352.88;;;26.18;52.72
56402;BME280;42299;35.160;26.100;2022-08-03T01:24:36;100354.78;;;26.16;52.93
56402;BME280;42299;35.160;26.100;2022-08-03T01:26:25;100361.13;;;26.15;53.16
56402;BME280;42299;35.160;26.100;2022-08-03T01:28:00;100350.38;;;26.14;53.33
56402;BME280;42299;35.160;26.100;2022-08-03T01:29:40;100348.56;;;26.14;53.51
56402;BME280;42299;35.160;26.100;2022-08-03T01:31:09;100348.56;;;26.14;53.54
56402;BME280;42299;35.160;26.100;2022-08-03T01:32:41;100351.28;;;26.14;53.47
56402;BME280;42299;35.160;26.100;2022-08-03T01:34:09;100354.94;;;26.13;53.46
56402;BME280;42299;35.160;26.100;2022-08-03T01:35:36;100355.88;;;26.12;53.63
56402;BME280;42299;35.160;26.100;2022-08-03T01:37:02;100352.34;;;26.12;53.69
56402;BME280;42299;35.160;26.100;2022-08-03T01:38:28;100345.06;;;26.12;53.82
56402;BME280;42299;35.160;26.100;2022-08-03T01:39:55;100354.94;;;26.13;53.85
56402;BME280;42299;35.160;26.100;2022-08-03T01:41:29;100361.28;;;26.12;53.51
56402;BME280;42299;35.160;26.100;2022-08-03T01:42:53;100357.81;;;26.10;53.86
56402;BME280;42299;35.160;26.100;2022-08-03T01:44:16;100347.16;;;26.07;53.95
56402;BME280;42299;35.160;26.100;2022-08-03T01:45:42;100363.38;;;26.07;53.72
56402;BME280;42299;35.160;26.100;2022-08-03T01:47:06;100364.34;;;26.06;54.13
56402;BME280;42299;35.160;26.100;2022-08-03T01:48:27;100358.94;;;26.06;54.06
56402;BME280;42299;35.160;26.100;2022-08-03T01:49:51;100360.88;;;26.04;53.99
56402;BME280;42299;35.160;26.100;2022-08-03T01:51:15;100356.47;;;26.02;54.22
56402;BME280;42299;35.160;26.100;2022-08-03T01:52:40;100368.19;;;26.02;54.01
56402;BME280;42299;35.160;26.100;2022-08-03T01:54:06;100362.06;;;25.99;54.16
56402;BME280;42299;35.160;26.100;2022-08-03T01:55:30;100360.22;;;25.99;54.41
56402;BME280;42299;35.160;26.100;2022-08-03T01:56:56;100362.91;;;25.99;54.27
56402;BME280;42299;35.160;26.100;2022-08-03T01:58:20;100359.38;;;25.99;54.51
56402;BME280;42299;35.160;26.100;2022-08-03T01:59:44;100355.78;;;25.98;54.60
56402;BME280;42299;35.160;26.100;2022-08-03T02:01:10;100360.31;;;25.98;54.64
56402;BME280;42299;35.160;26.100;2022-08-03T02:02:35;100355.00;;;25.96;54.60
56402;BME280;42299;35.160;26.100;2022-08-03T02:03:59;100353.16;;;25.97;54.52
56402;BME280;42299;35.160;26.100;2022-08-03T02:05:20;100351.47;;;25.94;54.49
56402;BME280;42299;35.160;26.100;2022-08-03T02:06:45;100352.38;;;25.95;54.75
56402;BME280;42299;35.160;26.100;2022-08-03T02:08:07;100358.72;;;25.94;54.57
56402;BME280;42299;35.160;26.100;2022-08-03T02:09:33;100356.03;;;25.94;54.71
56402;BME280;42299;35.160;26.100;2022-08-03T02:10:58;100357.06;;;25.91;54.90
56402;BME280;42299;35.160;26.100;2022-08-03T02:12:23;100357.06;;;25.91;55.08
56402;BME280;42299;35.160;26.100;2022-08-03T02:13:46;100359.72;;;25.93;54.80
56402;BME280;42299;35.160;26.100;2022-08-03T02:15:11;100365.00;;;25.94;55.02
56402;BME280;42299;35.160;26.100;2022-08-03T02:16:35;100356.03;;;25.94;54.91
56402;BME280;42299;35.160;26.100;2022-08-03T02:17:57;100365.97;;;25.93;55.06
56402;BME280;42299;35.160;26.100;2022-08-03T02:19:22;100359.59;;;25.94;54.96
56402;BME280;42299;35.160;26.100;2022-08-03T02:20:45;100356.03;;;25.94;55.17
56402;BME280;42299;35.160;26.100;2022-08-03T02:22:10;100357.84;;;25.93;54.98
56402;BME280;42299;35.160;26.100;2022-08-03T02:23:34;100358.03;;;25.90;55.19
56402;BME280;42299;35.160;26.100;2022-08-03T02:24:56;100352.53;;;25.92;55.13
56402;BME280;42299;35.160;26.100;2022-08-03T02:26:19;100369.66;;;25.92;55.20
56402;BME280;42299;35.160;26.100;2022-08-03T02:27:48;100362.50;;;25.91;55.13
56402;BME280;42299;35.160;26.100;2022-08-03T02:29:15;100362.50;;;25.91;55.31
56402;BME280;42299;35.160;26.100;2022-08-03T02:30:39;100354.44;;;25.90;55.12
56402;BME280;42299;35.160;26.100;2022-08-03T02:32:08;100361.69;;;25.89;55.09
56402;BME280;42299;35.160;26.100;2022-08-03T02:33:33;100360.88;;;25.87;55.29
56402;BME280;42299;35.160;26.100;2022-08-03T02:34:58;100355.66;;;25.84;55.46
56402;BME280;42299;35.160;26.100;2022-08-03T02:36:24;100357.47;;;25.84;55.20
56402;BME280;42299;35.160;26.100;2022-08-03T02:37:51;100360.19;;;25.84;55.42
56402;BME280;42299;35.160;26.100;2022-08-03T02:39:18;100351.28;;;25.82;55.76
56402;BME280;42299;35.160;26.100;2022-08-03T02:40:42;100355.81;;;25.81;55.82
56402;BME280;42299;35.160;26.100;2022-08-03T02:42:08;100350.50;;;25.79;55.70
56402;BME280;42299;35.160;26.100;2022-08-03T02:43:31;100358.63;;;25.79;55.93
56402;BME280;42299;35.160;26.100;2022-08-03T02:44:58;100365.84;;;25.79;55.93
56402;BME280;42299;35.160;26.100;2022-08-03T02:46:25;100360.44;;;25.79;55.76
56402;BME280;42299;35.160;26.100;2022-08-03T02:47:52;100364.03;;;25.79;55.77
56402;BME280;42299;35.160;26.100;2022-08-03T02:49:17;100363.16;;;25.79;55.75
56402;BME280;42299;35.160;26.100;2022-08-03T02:50:41;100361.31;;;25.79;55.69
56402;BME280;42299;35.160;26.100;2022-08-03T02:52:08;100364.88;;;25.80;55.94
56402;BME280;42299;35.160;26.100;2022-08-03T02:53:32;100364.03;;;25.79;55.74
56402;BME280;42299;35.160;26.100;2022-08-03T02:54:58;100365.84;;;25.79;55.84
56402;BME280;42299;35.160;26.100;2022-08-03T02:56:21;100358.63;;;25.79;55.81
56402;BME280;42299;35.160;26.100;2022-08-03T02:57:43;100362.16;;;25.80;55.81
56402;BME280;42299;35.160;26.100;2022-08-03T02:59:07;100354.94;;;25.80;55.53
56402;BME280;42299;35.160;26.100;2022-08-03T03:00:30;100360.34;;;25.80;55.78
56402;BME280;42299;35.160;26.100;2022-08-03T03:01:54;100365.75;;;25.80;55.56
56402;BME280;42299;35.160;26.100;2022-08-03T03:03:17;100367.59;;;25.80;55.68
56402;BME280;42299;35.160;26.100;2022-08-03T03:04:41;100368.63;;;25.77;55.65
56402;BME280;42299;35.160;26.100;2022-08-03T03:06:03;100373.16;;;25.77;55.79
56402;BME280;42299;35.160;26.100;2022-08-03T03:07:26;100367.84;;;25.75;56.05
56402;BME280;42299;35.160;26.100;2022-08-03T03:08:48;100364.31;;;25.73;55.89
56402;BME280;42299;35.160;26.100;2022-08-03T03:10:11;100364.31;;;25.73;55.81
56402;BME280;42299;35.160;26.100;2022-08-03T03:11:35;100364.31;;;25.73;56.13
56402;BME280;42299;35.160;26.100;2022-08-03T03:13:00;100366.09;;;25.74;55.87
56402;BME280;42299;35.160;26.100;2022-08-03T03:14:25;100375.16;;;25.73;56.17
56402;BME280;42299;35.160;26.100;2022-08-03T03:15:48;100373.25;;;25.75;56.21
56402;BME280;42299;35.160;26.100;2022-08-03T03:17:14;100373.25;;;25.75;56.19
56402;BME280;42299;35.160;26.100;2022-08-03T03:18:39;100375.06;;;25.75;56.09
56402;BME280;42299;35.160;26.100;2022-08-03T03:20:03;100377.84;;;25.73;56.31
56402;BME280;42299;35.160;26.100;2022-08-03T03:21:26;100376.03;;;25.74;56.24
56402;BME280;42299;35.160;26.100;2022-08-03T03:22:49;100379.59;;;25.74;56.50
56402;BME280;42299;35.160;26.100;2022-08-03T03:24:13;100372.38;;;25.75;56.52
56402;BME280;42299;35.160;26.100;2022-08-03T03:25:36;100370.47;;;25.77;56.37
56402;BME280;42299;35.160;26.100;2022-08-03T03:26:59;100363.22;;;25.77;56.11
56402;BME280;42299;35.160;26.100;2022-08-03T03:28:21;100369.50;;;25.78;56.10
56402;BME280;42299;35.160;26.100;2022-08-03T03:29:44;100374.84;;;25.79;56.28
56402;BME280;42299;35.160;26.100;2022-08-03T03:31:07;100361.31;;;25.79;55.94
56402;BME280;42299;35.160;26.100;2022-08-03T03:32:30;100364.03;;;25.79;55.96
56402;BME280;42299;35.160;26.100;2022-08-03T03:33:56;100376.56;;;25.80;56.05
56402;BME280;42299;35.160;26.100;2022-08-03T03:35:18;100363.03;;;25.80;55.92
56402;BME280;42299;35.160;26.100;2022-08-03T03:36:41;100367.44;;;25.83;56.19
56402;BME280;42299;35.160;26.100;2022-08-03T03:38:03;100364.72;;;25.83;56.17
56402;BME280;42299;35.160;26.100;2022-08-03T03:39:25;100370.94;;;25.85;55.99
56402;BME280;42299;35.160;26.100;2022-08-03T03:40:48;100377.13;;;25.87;55.79
56402;BME280;42299;35.160;26.100;2022-08-03T03:42:10;100383.19;;;25.92;55.83
56402;BME280;42299;35.160;26.100;2022-08-03T03:43:32;100373.06;;;25.96;55.66
56402;BME280;42299;35.160;26.100;2022-08-03T03:44:55;100380.91;;;26.00;55.70
56402;BME280;42299;35.160;26.100;2022-08-03T03:46:17;100369.84;;;26.05;55.83
56402;BME280;42299;35.160;26.100;2022-08-03T03:47:40;100375.88;;;26.10;55.54
56402;BME280;42299;35.160;26.100;2022-08-03T03:49:04;100382.63;;;26.18;55.79
56402;BME280;42299;35.160;26.100;2022-08-03T03:50:27;100381.44;;;26.24;55.38
56402;BME280;42299;35.160;26.100;2022-08-03T03:51:51;100375.69;;;26.30;55.51
56402;BME280;42299;35.160;26.100;2022-08-03T03:53:14;100379.91;;;26.36;55.61
56402;BME280;42299;35.160;26.100;2022-08-03T03:54:40;100382.25;;;26.42;55.48
56402;BME280;42299;35.160;26.100;2022-08-03T03:56:03;100383.81;;;26.46;55.33
56402;BME280;42299;35.160;26.100;2022-08-03T03:57:26;100379.81;;;26.53;55.36
56402;BME280;42299;35.160;26.100;2022-08-03T03:58:47;100379.47;;;26.59;55.28
56402;BME280;42299;35.160;26.100;2022-08-03T04:00:11;100387.22;;;26.65;54.89
56402;BME280;42299;35.160;26.100;2022-08-03T04:01:32;100384.22;;;26.71;54.72
56402;BME280;42299;35.160;26.100;2022-08-03T04:02:55;100380.06;;;26.80;54.69
56402;BME280;42299;35.160;26.100;2022-08-03T04:04:18;100391.31;;;26.89;54.65
56402;BME280;42299;35.160;26.100;2022-08-03T04:05:58;100385.34;;;26.98;54.48
56402;BME280;42299;35.160;26.100;2022-08-03T04:07:54;100381.72;;;27.14;54.16
56402;BME280;42299;35.160;26.100;2022-08-03T04:09:37;100387.59;;;27.22;54.02
56402;BME280;42299;35.160;26.100;2022-08-03T04:11:20;100392.44;;;27.31;53.83
56402;BME280;42299;35.160;26.100;2022-08-03T04:12:44;100386.47;;;27.40;53.53
56402;BME280;42299;35.160;26.100;2022-08-03T04:14:11;100389.41;;;27.51;53.34
56402;BME280;42299;35.160;26.100;2022-08-03T04:15:35;100387.06;;;27.61;53.17
56402;BME280;42299;35.160;26.100;2022-08-03T04:17:00;100382.91;;;27.69;52.88
56402;BME280;42299;35.160;26.100;2022-08-03T04:18:26;100397.66;;;27.80;52.62
56402;BME280;42299;35.160;26.100;2022-08-03T04:19:51;100390.69;;;27.90;52.57
56402;BME280;42299;35.160;26.100;2022-08-03T04:21:16;100384.69;;;27.99;52.28
56402;BME280;42299;35.160;26.100;2022-08-03T04:22:40;100384.13;;;28.08;51.84
56402;BME280;42299;35.160;26.100;2022-08-03T04:24:04;100384.44;;;28.18;51.82
56402;BME280;42299;35.160;26.100;2022-08-03T04:25:30;100397.53;;;28.25;51.38
56402;BME280;42299;35.160;26.100;2022-08-03T04:26:54;100392.41;;;28.35;51.13
56402;BME280;42299;35.160;26.100;2022-08-03T04:28:18;100390.91;;;28.43;50.96
56402;BME280;42299;35.160;26.100;2022-08-03T04:29:45;100385.69;;;28.54;50.89
56402;BME280;42299;35.160;26.100;2022-08-03T04:31:09;100386.72;;;28.66;50.72
56402;BME280;42299;35.160;26.100;2022-08-03T04:32:30;100388.06;;;28.73;50.34
56402;BME280;42299;35.160;26.100;2022-08-03T04:33:52;100394.88;;;28.80;50.10
56402;BME280;42299;35.160;26.100;2022-08-03T04:35:16;100379.59;;;28.92;50.22
56402;BME280;42299;35.160;26.100;2022-08-03T04:36:44;100388.47;;;29.08;49.95
56402;BME280;42299;35.160;26.100;2022-08-03T04:38:11;100394.72;;;29.23;49.39
56402;BME280;42299;35.160;26.100;2022-08-03T04:39:35;100387.78;;;29.31;49.27
56402;BME280;42299;35.160;26.100;2022-08-03T04:41:00;100385.22;;;29.43;49.16
56402;BME280;42299;35.160;26.100;2022-08-03T04:42:21;100397.34;;;29.51;48.73
56402;BME280;42299;35.160;26.100;2022-08-03T04:43:44;100391.94;;;29.64;48.56
56402;BME280;42299;35.160;26.100;2022-08-03T04:45:07;100392.72;;;29.79;48.29
56402;BME280;42299;35.160;26.100;2022-08-03T04:46:36;100386.19;;;29.94;48.20
56402;BME280;42299;35.160;26.100;2022-08-03T04:47:59;100389.78;;;30.07;47.34
56402;BME280;42299;35.160;26.100;2022-08-03T04:49:23;100389.91;;;30.18;47.25
56402;BME280;42299;35.160;26.100;2022-08-03T04:50:48;100382.81;;;30.28;46.69
56402;BME280;42299;35.160;26.100;2022-08-03T04:52:09;100388.69;;;30.35;46.50
56402;BME280;42299;35.160;26.100;2022-08-03T04:53:36;100389.88;;;30.43;46.02
56402;BME280;42299;35.160;26.100;2022-08-03T04:54:57;100394.25;;;30.59;45.54
56402;BME280;42299;35.160;26.100;2022-08-03T04:56:20;100395.09;;;30.72;45.31
56402;BME280;42299;35.160;26.100;2022-08-03T04:57:42;100396.91;;;30.84;44.93
56402;BME280;42299;35.160;26.100;2022-08-03T04:59:03;100395.13;;;30.96;44.59
56402;BME280;42299;35.160;26.100;2022-08-03T05:00:26;100399.69;;;31.08;44.56
56402;BME280;42299;35.160;26.100;2022-08-03T05:01:49;100405.94;;;31.21;44.28
56402;BME280;42299;35.160;26.100;2022-08-03T05:03:11;100396.44;;;31.38;44.27
56402;BME280;42299;35.160;26.100;2022-08-03T05:04:33;100403.59;;;31.51;43.67
56402;BME280;42299;35.160;26.100;2022-08-03T05:05:59;100397.63;;;31.70;43.50
56402;BME280;42299;35.160;26.100;2022-08-03T05:07:20;100402.38;;;31.90;43.16
56402;BME280;42299;35.160;26.100;2022-08-03T05:08:43;100414.59;;;32.09;42.56
56402;BME280;42299;35.160;26.100;2022-08-03T05:10:07;100403.56;;;32.32;42.23
56402;BME280;42299;35.160;26.100;2022-08-03T05:11:29;100406.81;;;32.49;41.93
56402;BME280;42299;35.160;26.100;2022-08-03T05:12:52;100411.63;;;32.56;41.68
56402;BME280;42299;35.160;26.100;2022-08-03T05:14:14;100410.91;;;32.76;41.30
56402;BME280;42299;35.160;26.100;2022-08-03T05:15:37;100410.25;;;32.95;40.75
56402;BME280;42299;35.160;26.100;2022-08-03T05:16:59;100405.75;;;33.05;40.38
56402;BME280;42299;35.160;26.100;2022-08-03T05:18:21;100398.78;;;33.12;40.30
56402;BME280;42299;35.160;26.100;2022-08-03T05:19:43;100403.50;;;33.21;39.97
56402;BME280;42299;35.160;26.100;2022-08-03T05:21:07;100398.72;;;33.35;39.62
56402;BME280;42299;35.160;26.100;2022-08-03T05:22:30;100412.91;;;33.40;39.48
56402;BME280;42299;35.160;26.100;2022-08-03T05:23:52;100411.47;;;33.25;39.63
56402;BME280;42299;35.160;26.100;2022-08-03T05:25:15;100412.16;;;33.38;39.54
56402;BME280;42299;35.160;26.100;2022-08-03T05:26:38;100412.53;;;33.65;39.18
56402;BME280;42299;35.160;26.100;2022-08-03T05:27:59;100417.44;;;33.82;38.82
56402;BME280;42299;35.160;26.100;2022-08-03T05:29:22;100413.25;;;33.99;38.49
56402;BME280;42299;35.160;26.100;2022-08-03T05:30:43;100417.47;;;34.24;37.98
56402;BME280;42299;35.160;26.100;2022-08-03T05:32:06;100418.66;;;34.31;37.71
56402;BME280;42299;35.160;26.100;2022-08-03T05:33:28;100420.28;;;34.43;37.56
56402;BME280;42299;35.160;26.100;2022-08-03T05:34:50;100415.88;;;34.52;37.24
56402;BME280;42299;35.160;26.100;2022-08-03T05:36:13;100420.75;;;34.48;37.26
56402;BME280;42299;35.160;26.100;2022-08-03T05:37:36;100427.31;;;34.66;36.91
56402;BME280;42299;35.160;26.100;2022-08-03T05:38:57;100431.63;;;34.90;36.66
56402;BME280;42299;35.160;26.100;2022-08-03T05:40:20;100424.44;;;34.98;36.50
56402;BME280;42299;35.160;26.100;2022-08-03T05:41:41;100429.34;;;35.14;36.35
56402;BME280;42299;35.160;26.100;2022-08-03T05:43:04;100425.06;;;35.21;36.00
56402;BME280;42299;35.160;26.100;2022-08-03T05:44:25;100432.69;;;35.17;36.00
56402;BME280;42299;35.160;26.100;2022-08-03T05:45:48;100424.88;;;35.13;35.77
56402;BME280;42299;35.160;26.100;2022-08-03T05:47:10;100433.97;;;35.04;36.04
56402;BME280;42299;35.160;26.100;2022-08-03T05:48:33;100429.22;;;35.15;36.13
56402;BME280;42299;35.160;26.100;2022-08-03T05:49:56;100433.47;;;35.39;35.81
56402;BME280;42299;35.160;26.100;2022-08-03T05:51:20;100427.41;;;35.64;35.48
56402;BME280;42299;35.160;26.100;2022-08-03T05:52:42;100421.06;;;35.83;35.10
56402;BME280;42299;35.160;26.100;2022-08-03T05:54:04;100434.94;;;36.01;34.89
56402;BME280;42299;35.160;26.100;2022-08-03T05:55:27;100434.91;;;36.10;34.43
56402;BME280;42299;35.160;26.100;2022-08-03T05:56:49;100434.06;;;36.10;34.60
56402;BME280;42299;35.160;26.100;2022-08-03T05:58:11;100430.28;;;36.20;34.58
56402;BME280;42299;35.160;26.100;2022-08-03T05:59:34;100437.47;;;36.41;34.24
56402;BME280;42299;35.160;26.100;2022-08-03T06:00:59;100435.09;;;36.55;34.02
56402;BME280;42299;35.160;26.100;2022-08-03T06:02:22;100438.53;;;36.67;33.85
56402;BME280;42299;35.160;26.100;2022-08-03T06:03:43;100433.44;;;36.72;33.52
56402;BME280;42299;35.160;26.100;2022-08-03T06:05:07;100428.13;;;36.61;33.25
56402;BME280;42299;35.160;26.100;2022-08-03T06:06:31;100438.88;;;36.45;33.34
56402;BME280;42299;35.160;26.100;2022-08-03T06:07:53;100426.75;;;36.38;33.52
56402;BME280;42299;35.160;26.100;2022-08-03T06:09:15;100430.41;;;36.28;33.62
56402;BME280;42299;35.160;26.100;2022-08-03T06:10:38;100441.09;;;36.31;33.44
56402;BME280;42299;35.160;26.100;2022-08-03T06:12:00;100434.31;;;36.36;33.35
56402;BME280;42299;35.160;26.100;2022-08-03T06:13:21;100438.88;;;36.45;33.29
56402;BME280;42299;35.160;26.100;2022-08-03T06:14:44;100431.97;;;36.41;33.25
56402;BME280;42299;35.160;26.100;2022-08-03T06:16:05;100433.91;;;36.21;33.49
56402;BME280;42299;35.160;26.100;2022-08-03T06:17:28;100437.50;;;36.12;33.84
56402;BME280;42299;35.160;26.100;2022-08-03T06:18:49;100435.94;;;36.09;33.83
56402;BME280;42299;35.160;26.100;2022-08-03T06:20:12;100429.69;;;36.07;33.73
56402;BME280;42299;35.160;26.100;2022-08-03T06:21:36;100431.75;;;35.95;33.73
56402;BME280;42299;35.160;26.100;2022-08-03T06:22:59;100442.03;;;35.93;33.80
56402;BME280;42299;35.160;26.100;2022-08-03T06:24:22;100441.16;;;35.93;33.66
56402;BME280;42299;35.160;26.100;2022-08-03T06:25:45;100430.88;;;35.95;33.84
56402;BME280;42299;35.160;26.100;2022-08-03T06:27:07;100433.03;;;36.01;33.66
56402;BME280;42299;35.160;26.100;2022-08-03T06:28:32;100438.69;;;36.19;33.67
56402;BME280;42299;35.160;26.100;2022-08-03T06:29:54;100435.78;;;36.30;33.44
56402;BME280;42299;35.160;26.100;2022-08-03T06:31:17;100441.97;;;36.32;33.31
56402;BME280;42299;35.160;26.100;2022-08-03T06:32:39;100435.00;;;36.38;33.17
56402;BME280;42299;35.160;26.100;2022-08-03T06:34:03;100439.03;;;36.43;33.04
56402;BME280;42299;35.160;26.100;2022-08-03T06:35:25;100441.63;;;36.45;32.93
56402;BME280;42299;35.160;26.100;2022-08-03T06:36:50;100436.97;;;36.55;32.74
56402;BME280;42299;35.160;26.100;2022-08-03T06:38:11;100437.81;;;36.65;32.63
56402;BME280;42299;35.160;26.100;2022-08-03T06:39:34;100431.00;;;36.59;32.61
56402;BME280;42299;35.160;26.100;2022-08-03T06:40:56;100439.28;;;36.59;32.69
56402;BME280;42299;35.160;26.100;2022-08-03T06:42:17;100435.84;;;36.48;32.62
56402;BME280;42299;35.160;26.100;2022-08-03T06:43:40;100432.50;;;36.44;32.76
56402;BME280;42299;35.160;26.100;2022-08-03T06:45:03;100443.84;;;36.41;32.56
56402;BME280;42299;35.160;26.100;2022-08-03T06:46:26;100437.47;;;36.31;32.35
56402;BME280;42299;35.160;26.100;2022-08-03T06:47:59;100437.81;;;36.09;32.16
56402;BME280;42299;35.160;26.100;2022-08-03T06:49:22;100439.81;;;36.07;32.39
56402;BME280;42299;35.160;26.100;2022-08-03T06:50:44;100439.56;;;36.10;32.23
56402;BME280;42299;35.160;26.100;2022-08-03T06:52:08;100430.59;;;35.79;32.44
56402;BME280;42299;35.160;26.100;2022-08-03T06:53:31;100439.84;;;35.49;32.89
56402;BME280;42299;35.160;26.100;2022-08-03T06:54:54;100442.59;;;35.49;32.81
56402;BME280;42299;35.160;26.100;2022-08-03T06:56:16;100445.63;;;35.55;32.94
56402;BME280;42299;35.160;26.100;2022-08-03T06:57:38;100436.38;;;35.66;32.84
56402;BME280;42299;35.160;26.100;2022-08-03T06:59:00;100445.78;;;35.73;32.72
56402;BME280;42299;35.160;26.100;2022-08-03T07:00:23;100442.78;;;35.76;32.84
56402;BME280;42299;35.160;26.100;2022-08-03T07:01:46;100442.19;;;35.82;32.63
56402;BME280;42299;35.160;26.100;2022-08-03T07:03:07;100447.69;;;35.82;32.77
56402;BME280;42299;35.160;26.100;2022-08-03T07:04:29;100443.91;;;35.93;32.86
56402;BME280;42299;35.160;26.100;2022-08-03T07:05:51;100458.19;;;36.06;32.57
56402;BME280;42299;35.160;26.100;2022-08-03T07:07:15;100444.47;;;36.06;32.59
56402;BME280;42299;35.160;26.100;2022-08-03T07:08:37;100443.91;;;36.03;32.47
56402;BME280;42299;35.160;26.100;2022-08-03T07:10:00;100454.03;;;36.02;32.53
56402;BME280;42299;35.160;26.100;2022-08-03T07:11:23;100445.63;;;35.94;32.09
56402;BME280;42299;35.160;26.100;2022-08-03T07:12:45;100441.00;;;35.85;32.02
56402;BME280;42299;35.160;26.100;2022-08-03T07:14:08;100441.03;;;35.75;32.18
56402;BME280;42299;35.160;26.100;2022-08-03T07:15:31;100444.66;;;35.76;32.29
56402;BME280;42299;35.160;26.100;2022-08-03T07:16:53;100446.97;;;35.80;32.20